createdAt,value
2017-11-30T00:02:00.405Z,57.50
2017-11-30T00:04:27.963Z,57.50
2017-11-30T00:06:56.266Z,58.20
2017-11-30T00:09:23.831Z,58.10
2017-11-30T00:11:51.356Z,57.60
2017-11-30T00:14:18.943Z,57.90
2017-11-30T00:16:46.499Z,58.30
2017-11-30T00:19:14.810Z,58.10
2017-11-30T00:21:42.379Z,58.00
2017-11-30T00:24:09.900Z,58.00
2017-11-30T00:26:37.436Z,58.10
2017-11-30T00:29:05.004Z,57.70
2017-11-30T00:31:33.340Z,58.00
2017-11-30T00:34:00.901Z,58.00
2017-11-30T00:36:28.480Z,57.90
2017-11-30T00:38:56.016Z,57.90
2017-11-30T00:41:23.574Z,57.70
2017-11-30T00:43:51.137Z,57.70
2017-11-30T00:46:18.679Z,57.70
2017-11-30T00:48:46.215Z,57.40
2017-11-30T00:51:13.774Z,57.10
2017-11-30T00:53:41.314Z,57.40
2017-11-30T00:56:08.875Z,57.60
2017-11-30T00:58:37.168Z,58.10
2017-11-30T01:01:04.721Z,58.00
2017-11-30T01:03:33.051Z,57.70
2017-11-30T01:06:00.608Z,57.60
2017-11-30T01:08:28.207Z,57.30
2017-11-30T01:10:55.783Z,57.20
2017-11-30T01:13:24.081Z,57.50
2017-11-30T01:15:51.652Z,57.50
2017-11-30T01:18:19.182Z,57.60
2017-11-30T01:20:46.738Z,57.50
2017-11-30T01:23:14.296Z,57.50
2017-11-30T01:25:42.588Z,57.90
2017-11-30T01:28:10.163Z,57.90
2017-11-30T01:30:37.722Z,58.20
2017-11-30T01:33:05.295Z,58.50
2017-11-30T01:35:32.814Z,58.70
2017-11-30T01:38:02.023Z,58.40
2017-11-30T01:40:29.598Z,58.30
2017-11-30T01:42:57.172Z,59.00
2017-11-30T01:45:24.701Z,58.90
2017-11-30T01:47:52.775Z,59.10
2017-11-30T01:50:20.314Z,59.10
2017-11-30T01:52:47.872Z,58.20
2017-11-30T01:55:15.436Z,57.70
2017-11-30T01:57:42.972Z,57.80
2017-11-30T02:00:10.575Z,57.60
2017-11-30T02:02:38.559Z,57.70
2017-11-30T02:05:06.135Z,57.90
2017-11-30T02:07:33.721Z,58.10
2017-11-30T02:10:01.281Z,58.10
2017-11-30T02:12:28.831Z,57.70
2017-11-30T02:14:56.352Z,57.20
2017-11-30T02:17:23.965Z,57.50
2017-11-30T02:19:51.613Z,57.50
2017-11-30T02:22:19.190Z,57.40
2017-11-30T02:24:46.719Z,57.50
2017-11-30T02:27:14.287Z,57.90
2017-11-30T02:29:41.823Z,58.60
2017-11-30T02:32:09.385Z,59.00
2017-11-30T02:34:36.931Z,59.00
2017-11-30T02:37:04.503Z,58.30
2017-11-30T02:39:32.096Z,58.10
2017-11-30T02:41:59.666Z,58.30
2017-11-30T02:44:27.231Z,58.90
2017-11-30T02:46:54.772Z,58.10
2017-11-30T02:49:22.348Z,58.70
2017-11-30T02:51:49.899Z,58.90
2017-11-30T02:54:17.462Z,58.80
2017-11-30T02:56:45.024Z,58.80
2017-11-30T02:59:12.542Z,58.70
2017-11-30T03:01:40.111Z,59.00
2017-11-30T03:04:07.667Z,58.80
2017-11-30T03:06:35.249Z,58.60
2017-11-30T03:09:03.899Z,58.70
2017-11-30T03:11:31.465Z,58.50
2017-11-30T03:13:59.038Z,58.60
2017-11-30T03:16:26.567Z,58.70
2017-11-30T03:18:54.180Z,58.50
2017-11-30T03:21:21.709Z,58.20
2017-11-30T03:23:49.235Z,58.00
2017-11-30T03:26:16.830Z,57.40
2017-11-30T03:28:44.391Z,56.80
2017-11-30T03:31:12.555Z,56.70
2017-11-30T03:33:40.114Z,57.20
2017-11-30T03:36:07.694Z,57.30
2017-11-30T03:38:35.242Z,57.20
2017-11-30T03:41:02.804Z,57.20
2017-11-30T03:43:30.367Z,57.20
2017-11-30T03:45:57.898Z,57.40
2017-11-30T03:48:25.732Z,57.30
2017-11-30T03:50:53.291Z,57.30
2017-11-30T03:53:20.860Z,57.50
2017-11-30T03:55:49.159Z,57.60
2017-11-30T03:58:16.722Z,57.50
2017-11-30T04:00:44.278Z,57.50
2017-11-30T04:03:11.810Z,57.40
2017-11-30T04:05:39.410Z,57.60
2017-11-30T04:08:06.942Z,57.70
2017-11-30T04:10:34.463Z,57.60
2017-11-30T04:13:02.028Z,57.40
2017-11-30T04:15:29.558Z,57.40
2017-11-30T04:17:57.090Z,56.80
2017-11-30T04:20:24.643Z,57.50
2017-11-30T04:22:52.202Z,57.50
2017-11-30T04:25:20.520Z,57.00
2017-11-30T04:27:48.046Z,57.00
2017-11-30T04:30:15.598Z,56.60
2017-11-30T04:32:43.122Z,56.30
2017-11-30T04:35:10.677Z,56.80
2017-11-30T04:37:38.207Z,56.70
2017-11-30T04:40:05.826Z,57.40
2017-11-30T04:42:33.347Z,57.50
2017-11-30T04:45:00.887Z,56.90
2017-11-30T04:47:28.434Z,56.90
2017-11-30T04:49:56.010Z,56.60
2017-11-30T04:52:23.594Z,56.40
2017-11-30T04:54:51.134Z,56.50
2017-11-30T04:57:19.459Z,56.10
2017-11-30T04:59:47.038Z,56.10
2017-11-30T05:02:14.628Z,56.40
2017-11-30T05:04:42.187Z,56.20
2017-11-30T05:07:09.719Z,56.20
2017-11-30T05:09:37.290Z,56.60
2017-11-30T05:12:04.871Z,56.80
2017-11-30T05:14:32.398Z,56.90
2017-11-30T05:16:59.985Z,56.40
2017-11-30T05:19:27.520Z,56.40
2017-11-30T05:21:55.054Z,56.50
2017-11-30T05:24:22.611Z,56.50
2017-11-30T05:26:50.969Z,56.30
2017-11-30T05:29:18.522Z,56.20
2017-11-30T05:31:46.078Z,55.80
2017-11-30T05:34:13.595Z,56.00
2017-11-30T05:36:41.128Z,57.20
2017-11-30T05:39:09.446Z,57.30
2017-11-30T05:41:37.019Z,57.20
2017-11-30T05:44:04.571Z,58.10
2017-11-30T05:46:32.183Z,58.00
2017-11-30T05:49:00.920Z,58.90
2017-11-30T05:51:28.478Z,58.80
2017-11-30T05:53:56.282Z,58.60
2017-11-30T05:56:23.851Z,58.70
2017-11-30T05:58:51.386Z,59.30
2017-11-30T06:01:18.967Z,59.60
2017-11-30T06:03:46.501Z,59.80
2017-11-30T06:06:14.038Z,59.80
2017-11-30T06:08:41.602Z,59.90
2017-11-30T06:11:09.151Z,60.50
2017-11-30T06:13:36.712Z,60.70
2017-11-30T06:16:04.264Z,60.60
2017-11-30T06:18:31.788Z,60.70
2017-11-30T06:20:59.328Z,60.60
2017-11-30T06:23:26.855Z,60.20
2017-11-30T06:25:54.415Z,60.80
2017-11-30T06:28:21.935Z,60.80
2017-11-30T06:30:49.496Z,60.30
2017-11-30T06:33:17.779Z,60.50
2017-11-30T06:35:45.336Z,60.40
2017-11-30T06:38:13.654Z,60.50
2017-11-30T06:40:41.200Z,60.50
2017-11-30T06:43:08.769Z,61.00
2017-11-30T06:45:36.295Z,61.20
2017-11-30T06:48:03.891Z,61.40
2017-11-30T06:50:31.459Z,61.00
2017-11-30T06:52:59.028Z,61.00
2017-11-30T06:55:26.559Z,61.40
2017-11-30T06:57:54.126Z,61.40
2017-11-30T07:00:21.688Z,62.10
2017-11-30T07:02:49.220Z,61.70
2017-11-30T07:05:16.779Z,61.90
2017-11-30T07:07:44.401Z,61.60
2017-11-30T07:10:11.943Z,61.50
2017-11-30T07:12:39.513Z,61.80
2017-11-30T07:15:07.133Z,61.90
2017-11-30T07:17:34.691Z,61.80
2017-11-30T07:20:02.347Z,61.60
2017-11-30T07:22:29.898Z,62.10
2017-11-30T07:24:57.444Z,61.70
2017-11-30T07:27:24.965Z,61.90
2017-11-30T07:29:52.521Z,61.90
2017-11-30T07:32:20.050Z,62.00
2017-11-30T07:34:47.616Z,61.90
2017-11-30T07:37:15.144Z,62.30
2017-11-30T07:39:43.465Z,62.70
2017-11-30T07:42:11.015Z,62.60
2017-11-30T07:44:38.655Z,62.60
2017-11-30T07:47:06.183Z,62.40
2017-11-30T07:49:34.528Z,62.80
2017-11-30T07:52:02.064Z,62.70
2017-11-30T07:54:29.639Z,63.20
2017-11-30T07:56:57.303Z,62.60
2017-11-30T07:59:24.824Z,62.40
2017-11-30T08:01:52.379Z,62.10
2017-11-30T08:04:19.944Z,62.60
2017-11-30T08:06:48.258Z,62.40
2017-11-30T08:09:15.868Z,62.40
2017-11-30T08:11:43.393Z,63.10
2017-11-30T08:14:11.748Z,63.00
2017-11-30T08:16:40.651Z,63.00
2017-11-30T08:19:08.248Z,62.10
2017-11-30T08:21:35.806Z,62.00
2017-11-30T08:24:03.333Z,61.80
2017-11-30T08:26:31.031Z,62.00
2017-11-30T08:28:58.607Z,61.80
2017-11-30T08:31:26.201Z,62.30
2017-11-30T08:33:53.774Z,61.80
2017-11-30T08:36:21.434Z,61.70
2017-11-30T08:38:49.004Z,61.80
2017-11-30T08:41:16.625Z,61.30
2017-11-30T08:43:44.219Z,61.00
2017-11-30T08:46:11.825Z,61.30
2017-11-30T08:48:40.007Z,62.10
2017-11-30T08:51:08.742Z,61.30
2017-11-30T08:53:36.399Z,61.40
2017-11-30T08:56:03.920Z,61.40
2017-11-30T08:58:31.520Z,61.70
2017-11-30T09:00:59.043Z,61.30
2017-11-30T09:03:26.713Z,61.10
2017-11-30T09:05:54.438Z,61.20
2017-11-30T09:08:22.077Z,60.90
2017-11-30T09:10:49.680Z,61.40
2017-11-30T09:13:18.021Z,61.60
2017-11-30T09:15:45.724Z,61.60
2017-11-30T09:18:14.046Z,61.50
2017-11-30T09:20:41.632Z,61.50
2017-11-30T09:23:09.182Z,61.30
2017-11-30T09:25:37.049Z,61.80
2017-11-30T09:28:04.603Z,61.40
2017-11-30T09:33:26.156Z,58.60
2017-11-30T09:35:53.702Z,61.20
2017-11-30T09:38:21.316Z,60.70
2017-11-30T09:40:48.890Z,61.90
2017-11-30T09:43:16.478Z,61.40
2017-11-30T09:45:44.038Z,60.70
2017-11-30T09:48:11.558Z,61.30
2017-11-30T09:50:39.175Z,60.80
2017-11-30T09:53:06.714Z,60.70
2017-11-30T09:55:34.246Z,61.50
2017-11-30T09:58:03.087Z,61.00
2017-11-30T10:00:30.608Z,60.80
2017-11-30T10:02:58.332Z,61.90
2017-11-30T10:05:26.024Z,61.40
2017-11-30T10:07:53.628Z,61.20
2017-11-30T10:10:21.160Z,61.60
2017-11-30T10:12:48.933Z,60.80
2017-11-30T10:15:17.306Z,60.70
2017-11-30T10:17:45.725Z,62.10
2017-11-30T10:20:13.299Z,61.40
2017-11-30T10:22:40.830Z,61.40
2017-11-30T10:25:08.407Z,61.20
2017-11-30T10:27:35.987Z,61.70
2017-11-30T10:30:03.641Z,61.90
2017-11-30T10:32:31.374Z,61.00
2017-11-30T10:34:59.703Z,61.10
2017-11-30T10:37:27.230Z,61.10
2017-11-30T10:39:54.863Z,61.00
2017-11-30T10:42:22.391Z,61.10
2017-11-30T10:44:49.947Z,61.10
2017-11-30T10:47:17.533Z,61.30
2017-11-30T10:49:45.071Z,61.70
2017-11-30T10:52:12.692Z,62.10
2017-11-30T10:54:40.279Z,61.40
2017-11-30T10:57:07.805Z,60.90
2017-11-30T10:59:35.366Z,60.60
2017-11-30T11:02:02.943Z,60.00
2017-11-30T11:04:30.695Z,60.30
2017-11-30T11:06:58.223Z,60.00
2017-11-30T11:09:26.624Z,59.90
2017-11-30T11:11:54.426Z,59.90
2017-11-30T11:14:22.110Z,59.90
2017-11-30T11:16:49.654Z,60.70
2017-11-30T11:19:17.230Z,59.70
2017-11-30T11:21:44.792Z,60.40
2017-11-30T11:24:12.334Z,61.20
2017-11-30T11:26:39.921Z,61.10
2017-11-30T11:29:07.445Z,60.60
2017-11-30T11:31:35.022Z,60.40
2017-11-30T11:34:02.570Z,60.30
2017-11-30T11:36:30.135Z,60.10
2017-11-30T11:38:57.718Z,60.70
2017-11-30T11:41:25.283Z,60.10
2017-11-30T11:43:52.839Z,59.70
2017-11-30T11:46:20.506Z,59.90
2017-11-30T11:48:48.091Z,60.70
2017-11-30T11:51:15.708Z,60.10
2017-11-30T11:53:43.252Z,60.80
2017-11-30T11:56:11.639Z,60.10
2017-11-30T11:58:39.255Z,60.10
2017-11-30T12:01:07.207Z,60.10
2017-11-30T12:03:35.541Z,60.90
2017-11-30T12:06:03.076Z,60.90
2017-11-30T12:08:31.495Z,61.00
2017-11-30T12:10:59.023Z,61.00
2017-11-30T12:13:26.617Z,61.40
2017-11-30T12:15:54.441Z,62.30
2017-11-30T12:18:21.962Z,62.50
2017-11-30T12:20:49.522Z,61.70
2017-11-30T12:23:17.131Z,62.30
2017-11-30T12:25:44.747Z,61.00
2017-11-30T12:28:12.403Z,60.90
2017-11-30T12:30:39.966Z,61.30
2017-11-30T12:33:07.500Z,61.70
2017-11-30T12:35:35.222Z,61.80
2017-11-30T12:38:02.798Z,61.80
2017-11-30T12:40:30.403Z,61.60
2017-11-30T12:42:57.920Z,60.90
2017-11-30T12:45:25.470Z,60.50
2017-11-30T12:47:53.030Z,60.70
2017-11-30T12:50:20.862Z,60.90
2017-11-30T12:52:48.441Z,61.90
2017-11-30T12:55:16.142Z,62.30
2017-11-30T12:57:43.692Z,62.00
2017-11-30T13:00:11.242Z,61.00
2017-11-30T13:02:38.811Z,60.70
2017-11-30T13:05:06.570Z,60.80
2017-11-30T13:07:34.118Z,61.50
2017-11-30T13:10:01.662Z,61.20
2017-11-30T13:12:29.216Z,60.70
2017-11-30T13:14:56.956Z,60.50
2017-11-30T13:17:24.517Z,60.70
2017-11-30T13:19:52.037Z,61.20
2017-11-30T13:22:19.577Z,61.40
2017-11-30T13:24:47.144Z,61.20
2017-11-30T13:27:14.709Z,60.60
2017-11-30T13:29:42.274Z,60.60
2017-11-30T13:32:09.801Z,59.90
2017-11-30T13:34:37.368Z,60.60
2017-11-30T13:37:04.885Z,60.10
2017-11-30T13:39:32.415Z,60.20
2017-11-30T13:42:00.023Z,60.60
2017-11-30T13:44:27.603Z,60.60
2017-11-30T13:46:55.159Z,60.00
2017-11-30T13:49:22.698Z,59.70
2017-11-30T13:51:52.351Z,59.50
2017-11-30T13:54:19.953Z,59.50
2017-11-30T13:56:47.516Z,59.60
2017-11-30T13:59:15.082Z,59.80
2017-11-30T14:01:42.598Z,60.30
2017-11-30T14:04:10.159Z,60.20
2017-11-30T14:06:37.874Z,60.40
2017-11-30T14:09:05.473Z,60.10
2017-11-30T14:11:32.999Z,60.30
2017-11-30T14:14:00.509Z,59.90
2017-11-30T14:16:28.063Z,60.20
2017-11-30T14:18:55.608Z,60.70
2017-11-30T14:21:23.144Z,61.00
2017-11-30T14:23:50.747Z,60.40
2017-11-30T14:26:18.450Z,60.10
2017-11-30T14:28:46.003Z,61.00
2017-11-30T14:31:14.398Z,60.70
2017-11-30T14:33:42.694Z,60.10
2017-11-30T14:36:10.476Z,60.10
2017-11-30T14:38:38.655Z,60.00
2017-11-30T14:41:06.942Z,59.90
2017-11-30T14:43:34.470Z,59.90
2017-11-30T14:46:07.196Z,60.20
2017-11-30T14:48:35.534Z,60.10
2017-11-30T14:51:03.083Z,60.00
2017-11-30T14:53:30.778Z,60.70
2017-11-30T14:55:58.429Z,61.10
2017-11-30T14:58:26.027Z,61.10
2017-11-30T15:00:53.565Z,61.10
2017-11-30T15:03:21.087Z,61.00
2017-11-30T15:05:48.653Z,60.70
2017-11-30T15:08:16.213Z,60.50
2017-11-30T15:10:43.766Z,60.50
2017-11-30T15:13:11.300Z,60.60
2017-11-30T15:15:40.040Z,60.40
2017-11-30T15:18:08.118Z,60.30
2017-11-30T15:20:36.578Z,60.50
2017-11-30T15:23:04.546Z,60.40
2017-11-30T15:25:32.071Z,60.80
2017-11-30T15:27:59.771Z,60.70
2017-11-30T15:30:27.354Z,61.10
2017-11-30T15:32:54.956Z,60.60
2017-11-30T15:35:23.312Z,61.50
2017-11-30T15:37:50.854Z,61.50
2017-11-30T15:40:18.384Z,62.60
2017-11-30T15:42:45.962Z,62.20
2017-11-30T15:45:13.509Z,61.50
2017-11-30T15:47:41.028Z,61.70
2017-11-30T15:50:08.630Z,61.40
2017-11-30T15:52:36.154Z,62.10
2017-11-30T15:55:04.460Z,62.10
2017-11-30T15:57:32.268Z,62.10
2017-11-30T15:59:59.843Z,61.80
2017-11-30T16:02:27.390Z,62.90
2017-11-30T16:04:55.007Z,61.90
2017-11-30T16:07:22.675Z,61.90
2017-11-30T16:09:50.233Z,61.80
2017-11-30T16:12:17.870Z,61.30
2017-11-30T16:14:45.389Z,61.50
2017-11-30T16:17:12.976Z,61.30
2017-11-30T16:19:40.529Z,61.10
2017-11-30T16:22:08.071Z,62.00
2017-11-30T16:24:36.465Z,61.20
2017-11-30T16:27:03.977Z,61.20
2017-11-30T16:29:31.538Z,61.40
2017-11-30T16:31:59.073Z,61.50
2017-11-30T16:34:26.640Z,61.60
2017-11-30T16:36:54.181Z,61.80
2017-11-30T16:39:21.749Z,61.40
2017-11-30T16:41:49.275Z,61.20
2017-11-30T16:44:16.830Z,60.90
2017-11-30T16:46:44.358Z,61.00
2017-11-30T16:49:11.958Z,61.00
2017-11-30T16:51:39.579Z,61.00
2017-11-30T16:54:07.171Z,61.20
2017-11-30T16:56:34.708Z,60.30
2017-11-30T16:59:02.227Z,60.00
2017-11-30T17:01:29.798Z,59.90
2017-11-30T17:03:57.329Z,59.70
2017-11-30T17:06:25.624Z,59.50
2017-11-30T17:08:53.201Z,59.50
2017-11-30T17:11:20.745Z,59.10
2017-11-30T17:13:48.292Z,58.50
2017-11-30T17:16:15.824Z,58.70
2017-11-30T17:18:43.384Z,58.80
2017-11-30T17:21:10.911Z,58.40
2017-11-30T17:23:38.472Z,58.70
2017-11-30T17:26:06.055Z,59.30
2017-11-30T17:28:33.561Z,59.00
2017-11-30T17:31:01.098Z,59.40
2017-11-30T17:33:28.630Z,58.70
2017-11-30T17:35:56.184Z,58.90
2017-11-30T17:38:23.949Z,59.00
2017-11-30T17:40:51.513Z,58.80
2017-11-30T17:43:19.040Z,58.70
2017-11-30T17:45:46.608Z,58.60
2017-11-30T17:48:14.151Z,58.80
2017-11-30T17:50:41.736Z,58.30
2017-11-30T17:53:09.301Z,58.30
2017-11-30T17:55:36.904Z,58.50
2017-11-30T17:58:04.438Z,58.50
2017-11-30T18:00:31.996Z,59.10
2017-11-30T18:02:59.579Z,59.10
2017-11-30T18:05:27.153Z,58.90
2017-11-30T18:07:55.496Z,59.90
2017-11-30T18:10:23.813Z,59.40
2017-11-30T18:12:51.411Z,59.30
2017-11-30T18:15:18.948Z,59.20
2017-11-30T18:17:46.524Z,59.00
2017-11-30T18:20:14.115Z,59.40
2017-11-30T18:22:41.674Z,59.40
2017-11-30T18:25:09.222Z,59.60
2017-11-30T18:27:36.757Z,59.50
2017-11-30T18:30:04.332Z,60.10
2017-11-30T18:32:31.882Z,60.50
2017-11-30T18:34:59.499Z,61.20
2017-11-30T18:37:27.037Z,61.30
2017-11-30T18:39:54.601Z,61.90
2017-11-30T18:42:22.220Z,61.80
2017-11-30T18:44:49.793Z,61.70
2017-11-30T18:47:17.393Z,61.90
2017-11-30T18:49:44.917Z,62.00
2017-11-30T18:52:12.521Z,61.80
2017-11-30T18:54:40.893Z,61.90
2017-11-30T18:57:09.187Z,62.00
2017-11-30T18:59:36.717Z,61.80
2017-11-30T19:02:04.297Z,61.80
2017-11-30T19:04:31.848Z,62.10
2017-11-30T19:06:59.381Z,61.90
2017-11-30T19:09:26.959Z,62.00
2017-11-30T19:11:54.482Z,62.30
2017-11-30T19:14:22.045Z,63.00
2017-11-30T19:16:49.614Z,62.20
2017-11-30T19:19:17.168Z,61.80
2017-11-30T19:21:44.681Z,61.70
2017-11-30T19:24:12.263Z,61.30
2017-11-30T19:26:39.792Z,62.00
2017-11-30T19:29:07.349Z,62.10
2017-11-30T19:31:34.900Z,62.60
2017-11-30T19:34:03.236Z,62.70
2017-11-30T19:36:30.799Z,61.90
2017-11-30T19:38:58.363Z,61.80
2017-11-30T19:41:25.921Z,61.80
2017-11-30T19:43:53.442Z,61.40
2017-11-30T19:46:20.979Z,61.20
2017-11-30T19:48:48.589Z,62.30
2017-11-30T19:51:16.231Z,63.10
2017-11-30T19:53:43.842Z,61.80
2017-11-30T19:56:11.340Z,61.20
2017-11-30T19:58:38.899Z,60.70
2017-11-30T20:01:06.439Z,60.50
2017-11-30T20:03:34.013Z,60.90
2017-11-30T20:06:01.541Z,60.90
2017-11-30T20:08:29.127Z,60.70
2017-11-30T20:10:56.683Z,61.00
2017-11-30T20:13:25.142Z,61.50
2017-11-30T20:15:52.669Z,61.50
2017-11-30T20:18:20.301Z,62.20
2017-11-30T20:20:47.822Z,61.40
2017-11-30T20:23:15.420Z,61.70
2017-11-30T20:25:42.938Z,61.50
2017-11-30T20:28:10.504Z,62.10
2017-11-30T20:30:38.037Z,61.90
2017-11-30T20:33:05.621Z,61.20
2017-11-30T20:35:33.149Z,61.60
2017-11-30T20:38:00.775Z,62.90
2017-11-30T20:40:28.325Z,61.80
2017-11-30T20:42:56.629Z,61.90
2017-11-30T20:45:24.175Z,62.00
2017-11-30T20:47:51.846Z,61.50
2017-11-30T20:50:19.407Z,61.20
2017-11-30T20:52:46.921Z,61.10
2017-11-30T20:55:14.477Z,61.50
2017-11-30T20:57:41.993Z,62.10
2017-11-30T21:00:09.546Z,62.50
2017-11-30T21:02:37.061Z,61.80
2017-11-30T21:05:04.626Z,61.60
2017-11-30T21:07:32.149Z,61.40
2017-11-30T21:09:59.675Z,61.80
2017-11-30T21:12:27.213Z,62.00
2017-11-30T21:14:54.735Z,61.60
2017-11-30T21:17:22.366Z,62.10
2017-11-30T21:19:49.917Z,61.60
2017-11-30T21:22:17.485Z,61.90
2017-11-30T21:24:45.041Z,61.50
2017-11-30T21:27:12.599Z,61.10
2017-11-30T21:29:40.124Z,61.00
2017-11-30T21:32:07.703Z,61.10
2017-11-30T21:34:35.287Z,61.60
2017-11-30T21:37:02.820Z,61.90
2017-11-30T21:39:30.399Z,60.50
2017-11-30T21:41:57.929Z,60.80
2017-11-30T21:44:25.570Z,61.10
2017-11-30T21:46:53.125Z,61.10
2017-11-30T21:49:20.650Z,61.50
2017-11-30T21:51:48.211Z,61.60
2017-11-30T21:54:15.762Z,61.00
2017-11-30T21:56:43.285Z,62.30
2017-11-30T21:59:10.821Z,61.30
2017-11-30T22:01:38.344Z,62.30
2017-11-30T22:04:05.896Z,61.10
2017-11-30T22:06:33.425Z,61.00
2017-11-30T22:09:00.987Z,61.40
2017-11-30T22:11:28.514Z,60.70
2017-11-30T22:13:56.079Z,60.40
2017-11-30T22:16:23.602Z,60.60
2017-11-30T22:18:51.146Z,60.90
2017-11-30T22:21:18.699Z,60.50
2017-11-30T22:23:46.225Z,60.90
2017-11-30T22:26:13.778Z,61.10
2017-11-30T22:28:41.360Z,61.30
2017-11-30T22:31:09.741Z,61.00
2017-11-30T22:33:37.277Z,61.00
2017-11-30T22:36:05.609Z,60.80
2017-11-30T22:38:34.292Z,60.80
2017-11-30T22:41:01.847Z,61.10
2017-11-30T22:43:29.422Z,61.10
2017-11-30T22:45:56.946Z,59.90
2017-11-30T22:48:25.306Z,60.70
2017-11-30T22:50:53.666Z,60.80
2017-11-30T22:53:21.218Z,60.80
2017-11-30T22:55:48.810Z,60.70
2017-11-30T22:58:16.395Z,60.10
2017-11-30T23:00:43.934Z,60.10
2017-11-30T23:03:12.264Z,60.00
2017-11-30T23:05:39.817Z,60.00
2017-11-30T23:08:07.338Z,59.80
2017-11-30T23:10:34.926Z,59.60
2017-11-30T23:13:02.458Z,59.70
2017-11-30T23:15:29.998Z,59.80
2017-11-30T23:17:57.518Z,59.70
2017-11-30T23:20:25.108Z,60.00
2017-11-30T23:22:52.641Z,59.90
2017-11-30T23:25:20.266Z,59.40
2017-11-30T23:27:47.799Z,60.30
2017-11-30T23:30:15.320Z,60.40
2017-11-30T23:32:42.886Z,60.50
2017-11-30T23:35:10.417Z,60.40
2017-11-30T23:37:37.981Z,60.10
2017-11-30T23:40:05.507Z,59.80
2017-11-30T23:42:33.082Z,60.40
2017-11-30T23:45:00.613Z,60.40
2017-11-30T23:47:28.192Z,60.00
2017-11-30T23:49:55.740Z,59.80
2017-11-30T23:52:24.073Z,59.60
2017-11-30T23:54:51.588Z,60.10
2017-11-30T23:57:19.922Z,59.50
2017-11-30T23:59:47.457Z,59.50
